Pagrindinis puslapis
METAR-TAF:

METAR-TAF

Oro uostai :

Old Crow, Jukonas, Kanada

platuma: 67-34N, ilguma: 139-49W, Aukštis: 251 m

Dabartinis oras

Ataskaita buvo paskelbta 48 minutes, ne 20:00 UTC
Vėjas 10 kt iš Vakarų/Pietvakarių
Temperatūra -10°C
Drėgmė 79%
Slėgis 1036 hPa
Matomumas: 56.3 km
Išsisklaidę debesys ne aukštis 1200 ft
Su prošvaistėmis ne aukštis 3500 ft

METAR: CYOC 222000Z 25010KT 35SM SCT012 BKN035 M10/M13 A3059 RMK ST4SC2 VIS NW 3 SLP385

Laikas: 13:48 (20:48 UTC)

Prognozė

Ataskaita buvo paskelbta 2 valandos ir 4 minutes, ne 18:44 UTC
Prognozė galioja nuo 22 metu 19 UTC su 23 metu 01 UTC
Vėjas 8 kt iš Vakarų
Matomumas: 10 km
Išsisklaidę debesys ne aukštis 1200 ft
Apsiniaukę ne aukštis 3000 ft
Laikinai
nuo 22 metu 19 UTC su 23 metu 01 UTC
Matomumas: 10 km
Su prošvaistėmis ne aukštis 1200 ft
Apsiniaukę ne aukštis 3000 ft
sniegas

TAF: CYOC 221844Z 2219/2301 26008KT P6SM SCT012 OVC030 TEMPO 2219/2301 P6SM -SN BKN012 OVC030 RMK NXT FCST WILL BE ISSUED AT 231445Z

Orai ataskaitas ir orų prognozės (METAR, TAF).

turimą stotys yra geltonos ir raudonos taškus žemėlapyje.

Perkelti pele per norėdami pamatyti stoties vardą.

Tada spustelėkite, norėdami matyti oro stebėjimo ir prognozės.

Norėdami pakeisti žemėlapį: spustelėkite ant žalios mygtukų su juodo kryžiaus žemyn,; žalią mygtuką su brūkšneliu, jei norite nutolinti; arba žalių rodyklių gretimoms žemėlapius.


METAR-TAF: